This is the latest recevied weather packets stored in our database for station/object SV2ASS-2. If no packets are shown the sender has not sent any weather packets the latest 10 day(s).
| Time | Temp. | Humidity | Pressure | Rain* | Wind** | Luminosity | Snow |
|---|---|---|---|---|---|---|---|
| 1777746469 | 10.56° C | 51% | 1021.7 hPa | - | - | - | - |
| 1777745569 | 11.11° C | 50% | 1021.7 hPa | - | - | - | - |
| 1777744668 | 11.11° C | 50% | 1021.6 hPa | - | - | - | - |
| 1777743769 | 11.11° C | 51% | 1021.5 hPa | - | - | - | - |
| 1777742868 | 12.22° C | 50% | 1021.5 hPa | - | - | - | - |
| 1777741968 | 12.78° C | 50% | 1021.4 hPa | - | - | - | - |
| 1777741068 | 13.33° C | 50% | 1021.4 hPa | - | - | - | - |
| 1777740168 | 13.89° C | 53% | 1021.4 hPa | - | - | - | - |
| 1777739268 | 14.44° C | 49% | 1021.4 hPa | - | - | - | - |
| 1777738368 | 15° C | 51% | 1021.5 hPa | - | - | - | - |
| 1777737468 | 8.33° C | 49% | 1011.6 hPa | - | - | - | - |
| 1777736563 | 15.56° C | 45% | 1021.7 hPa | - | - | - | - |
| 1777735663 | 15° C | 44% | 1021.7 hPa | - | - | - | - |
| 1777734763 | 15.56° C | 37% | 1021.6 hPa | - | - | - | - |
| 1777733865 | 16.11° C | 36% | 1021.2 hPa | - | - | - | - |
| 1777732965 | 16.11° C | 36% | 1021.3 hPa | - | - | - | - |
| 1777732065 | 16.67° C | 35% | 1021.3 hPa | - | - | - | - |
| 1777731165 | 17.22° C | 37% | 1021.3 hPa | - | - | - | - |
| 1777730265 | 16.67° C | 35% | 1021.3 hPa | - | - | - | - |
| 1777729365 | 15.56° C | 35% | 1021.3 hPa | - | - | - | - |
| 1777728465 | 16.11° C | 33% | 1021.5 hPa | - | - | - | - |
| 1777727565 | 16.67° C | 34% | 1021.8 hPa | - | - | - | - |
| 1777726664 | 16.67° C | 32% | 1021.9 hPa | - | - | - | - |
| 1777725765 | 18.89° C | 32% | 1022.1 hPa | - | - | - | - |
| 1777724864 | 17.22° C | 34% | 1022.3 hPa | - | - | - | - |
* Rain since midnight (hover to see other rain measurements)
** Current wind speed in m/s (hover to see current wind gust speed)